YPPH Airport Information

Runway Information
Runway 03 Length 11299 ft width 148 ft
Elevation 67 ft Threshold 0 ft Heading 14
Runway 21 Length 11299 ft Width 148 ft
Elevation 43 ft Threshold 0 ft Heading 194
Runway 06 Length 7096 ft width 148 ft
Elevation 58 ft Threshold 0 ft Heading 59
Runway 24 Length 7096 ft Width 148 ft
Elevation 58 ft Threshold 0 ft Heading 239
Airport Frequencies
Type APP Name APP Frequency 123.6 MHZ
Type ATIS Name ATIS Frequency 123.8 MHZ
Type CLD Name CLNC DEL Frequency 118.55 MHZ
Type DEP Name DEP Frequency 118.7 MHZ
Type FSS Name PERTH RADA Frequency 135.25 MHZ
Type GND Name GND Frequency 121.7 MHZ
Type OPS Name RAAF AIR O Frequency 897.4 MHZ
Type TWR Name TWR Frequency 120.5 MHZ
Airport Navaids
Type NDB Name Caversham Frequency 329 KHZ
Type VOR-DME Name Perth Frequency 113700 KHZ
Type NDB Name Perth Frequency 272 KHZ
Type NDB Name Parkerville Frequency 352 KHZ
Airport Weather Information & NOTAM
ADDS - METARS form results

(1042 UTC 20 October 2021)
Data provider http://aviationweather.gov/metar/data/
 
METAR text: YPPH 201030Z 29014KT 9999 VCSH FEW020 SCT026 BKN032 18/14 Q1012
Conditions at: YPPH (PERTH INTL/BELMO, AU) observed 1030 UTC 20 October 2021
Temperature: 18.0°C (64°F)
Dewpoint: 14.0°C (57°F) [RH = 77%]
Pressure (altimeter): 29.88 inches Hg (1012.0 mb)
Winds: from the WNW (290 degrees) at 16 MPH (14 knots; 7.2 m/s)
Visibility: 6 or more miles (10+ km)
Ceiling: 3200 feet AGL
Clouds: few clouds at 2000 feet AGL
scattered clouds at 2600 feet AGL
broken clouds at 3200 feet AGL
Weather: VCSH  (showers in vicinity)

METAR text: YPPH 201013Z 30014KT 9999 -SHRA SCT019 BKN026 BKN032 18/14 Q1012
Conditions at: YPPH (PERTH INTL/BELMO, AU) observed 1013 UTC 20 October 2021
Temperature: 18.0°C (64°F)
Dewpoint: 14.0°C (57°F) [RH = 77%]
Pressure (altimeter): 29.88 inches Hg (1012.0 mb)
Winds: from the WNW (300 degrees) at 16 MPH (14 knots; 7.2 m/s)
Visibility: 6 or more miles (10+ km)
Ceiling: 2600 feet AGL
Clouds: scattered clouds at 1900 feet AGL
broken clouds at 2600 feet AGL
broken clouds at 3200 feet AGL
Weather: -SHRA  (light rain showers)

METAR text: YPPH 201000Z 29015KT 9999 -SHRA BKN018 BKN024 18/14 Q1012 RF00/0/001/0 VIS/ AMENDED
Conditions at: YPPH (PERTH INTL/BELMO, AU) observed 1000 UTC 20 October 2021
Temperature: 18.0°C (64°F)
Dewpoint: 14.0°C (57°F) [RH = 77%]
Pressure (altimeter): 29.88 inches Hg (1012.0 mb)
Winds: from the WNW (290 degrees) at 17 MPH (15 knots; 7.7 m/s)
Visibility: 6 or more miles (10+ km)
Ceiling: 1800 feet AGL
Clouds: broken clouds at 1800 feet AGL
broken clouds at 2400 feet AGL
Weather: -SHRA  (light rain showers)

Forecast for: AMD
Text: TAF AMD YPPH 201032Z 2010/2112 26012KT 9999 -SHRA SCT015 BKN020
Forecast period: 1000 to 1500 UTC 20 October 2021
Forecast type: FROM: standard forecast or significant change
Winds: from the W (260 degrees) at 14 MPH (12 knots; 6.2 m/s)
Visibility: 6 or more miles (10+ km)
Ceiling: 2000 feet AGL
Clouds: scattered clouds at 1500 feet AGL
broken clouds at 2000 feet AGL
Weather: -SHRA  (light rain showers)
Text: FM201500 26008KT 9999 -SHRA BKN025
Forecast period: 1500 UTC 20 October 2021 to 0000 UTC 21 October 2021
Forecast type: FROM: standard forecast or significant change
Winds: from the W (260 degrees) at 9 MPH (8 knots; 4.1 m/s)
Visibility: 6 or more miles (10+ km)
Ceiling: 2500 feet AGL
Clouds: broken clouds at 2500 feet AGL
Weather: -SHRA  (light rain showers)
Text: FM210000 25012KT 9999 -SHRA BKN025 INTER 2010/2012 27022G35KT 4000 SHRA BKN008 INTER 2012/2015 5000 SHRA BKN015
Forecast period: 0000 to 1200 UTC 21 October 2021
Forecast type: FROM: standard forecast or significant change
Winds: from the WSW (250 degrees) at 14 MPH (12 knots; 6.2 m/s)
Visibility: 6 or more miles (10+ km)
Ceiling: 2500 feet AGL
Clouds: broken clouds at 2500 feet AGL
Weather: -SHRA  (light rain showers)
Text:
Forecast period: 1000 to 1200 UTC 20 October 2021
Forecast type: TEMPORARY: The following changes expected for less than half the time period
Winds: from the W (270 degrees) at 25 MPH (22 knots; 11.3 m/s)
gusting to 40 MPH (35 knots; 18.0 m/s)
Visibility: 2.49 miles (4.01 km)
Ceiling: 800 feet AGL
Clouds: broken clouds at 800 feet AGL
Weather: SHRA  (rain showers)
Text:
Forecast period: 1200 to 1500 UTC 20 October 2021
Forecast type: TEMPORARY: The following changes expected for less than half the time period
Visibility: 3 miles (5 km)
Ceiling: 1500 feet AGL
Clouds: broken clouds at 1500 feet AGL
Weather: SHRA  (rain showers)